No particular awareness of the weather is required.    There are no Weather-warnings


Meteo18 Weather Cam more information Meteo18 Weather Cam


Thunder radar more information blitzortung!


Rain radar more information rain snow radar


Visit our other weather sites:

Template documentation
and downloads

And another site



Weather Underground History page Text

Daily Summary for November 11, 2017 Units:  English    Metric   Both
« Previous Day
Next Day »
Daily Weekly Monthly Yearly Custom
  High: Low: Average:
Temperature: TemperatureC °F 8.0 °F 10.7 °F
Dew Point: DewpointC °F 6.1 °F 9.8 °F
Humidity: Humidity % 85 % 94 %
Wind Speed: WindSpeedKMH mph 0.0 mph 11.7 mph
Wind Gust: WindSpeedGustKMH mph - -
Wind:- - West
Pressure: PressurehPa in 1015.5 in -
Precipitation: 7.4 in    
Historical Graphs
 
 
Tabular Data for November 11, 2017
Time Temperature Dew Point Pressure Wind Wind Speed Wind Gust Humidity Rainfall Rate (Hourly)
TemperatureC °F DewpointC °F PressurehPa in Calm     Humidity % HourlyPrecipMM in
00:02 9.1 °F 6.7 °F 1024.6 in NW 9.7 mph 12.9 mph 85 % 0.0 in
00:07 9.1 °F 6.7 °F 1024.6 in WNW 4.8 mph 12.9 mph 85 % 0.0 in
00:12 9.1 °F 6.7 °F 1024.6 in WNW 6.4 mph 12.9 mph 85 % 0.0 in
00:17 9.0 °F 6.6 °F 1024.6 in WNW 6.4 mph 12.9 mph 85 % 0.0 in
00:22 8.9 °F 6.7 °F 1024.6 in NNW 3.2 mph 11.3 mph 86 % 0.0 in
00:32 8.9 °F 6.7 °F 1024.6 in WNW 3.2 mph 11.3 mph 86 % 0.0 in
00:42 8.9 °F 6.9 °F 1024.6 in SSW 3.2 mph 12.9 mph 87 % 0.0 in
00:47 8.9 °F 6.9 °F 1024.6 in NW 3.2 mph 14.5 mph 87 % 0.0 in
00:52 8.9 °F 6.9 °F 1024.6 in WSW 1.6 mph 14.5 mph 87 % 0.0 in
00:57 8.9 °F 6.9 °F 1024.3 in WNW 8.0 mph 14.5 mph 87 % 0.0 in
01:02 8.9 °F 6.9 °F 1024.3 in WNW 9.7 mph 12.9 mph 87 % 0.0 in
01:07 8.9 °F 6.9 °F 1024.3 in West 8.0 mph 12.9 mph 87 % 0.0 in
01:12 8.9 °F 6.9 °F 1024.3 in West 4.8 mph 12.9 mph 87 % 0.0 in
01:17 8.9 °F 6.9 °F 1024.3 in West 6.4 mph 12.9 mph 87 % 0.0 in
01:22 8.9 °F 6.9 °F 1024.3 in WSW 4.8 mph 12.9 mph 87 % 0.0 in
01:27 8.9 °F 6.9 °F 1024.3 in WNW 3.2 mph 14.5 mph 87 % 0.0 in
01:32 8.9 °F 6.9 °F 1024.3 in West 4.8 mph 14.5 mph 87 % 0.0 in
01:37 8.9 °F 6.9 °F 1024.3 in WNW 8.0 mph 14.5 mph 87 % 0.0 in
01:42 8.9 °F 6.9 °F 1024.3 in West 3.2 mph 16.1 mph 87 % 0.0 in
01:47 8.9 °F 7.0 °F 1024.3 in WNW 1.6 mph 16.1 mph 88 % 0.0 in
01:52 8.9 °F 7.0 °F 1024.3 in WNW 3.2 mph 16.1 mph 88 % 0.0 in
01:57 8.9 °F 7.0 °F 1024.3 in West 1.6 mph 9.7 mph 88 % 0.0 in
02:02 8.8 °F 6.9 °F 1024.3 in WNW 9.7 mph 9.7 mph 88 % 0.0 in
02:07 8.9 °F 7.0 °F 1024.3 in WNW 6.4 mph 11.3 mph 88 % 0.0 in
02:12 8.9 °F 7.0 °F 1024.3 in WNW 4.8 mph 11.3 mph 88 % 0.0 in
02:17 8.8 °F 6.8 °F 1024.3 in West 4.8 mph 11.3 mph 87 % 0.0 in
02:22 8.8 °F 6.8 °F 1024.3 in WSW 4.8 mph 11.3 mph 87 % 0.0 in
02:27 8.7 °F 6.8 °F 1024.3 in WSW 3.2 mph 8.0 mph 88 % 0.0 in
02:32 8.7 °F 6.8 °F 1024.3 in WSW 6.4 mph 8.0 mph 88 % 0.0 in
02:37 8.7 °F 6.8 °F 1024.3 in WSW 3.2 mph 8.0 mph 88 % 0.0 in
02:42 8.0 °F 6.1 °F 1024.3 in West 1.6 mph 8.0 mph 88 % 0.0 in
02:52 8.2 °F 6.3 °F 1023.9 in Calm   4.8 mph 88 % 0.0 in
02:57 8.2 °F 6.3 °F 1024.3 in Calm   3.2 mph 88 % 0.0 in
08:42 8.5 °F 7.9 °F 1020.5 in SW 20.9 mph 25.7 mph 96 % 0.0 in
08:47 8.5 °F 7.9 °F 1020.5 in SW 9.7 mph 25.7 mph 96 % 0.0 in
08:52 8.6 °F 8.0 °F 1020.5 in WSW 16.1 mph 25.7 mph 96 % 0.0 in
09:02 8.6 °F 8.0 °F 1020.5 in SW 14.5 mph 29.0 mph 96 % 0.0 in
09:07 8.6 °F 8.0 °F 1020.5 in WSW 4.8 mph 29.0 mph 96 % 0.0 in
09:12 8.6 °F 8.0 °F 1020.5 in West 17.7 mph 29.0 mph 96 % 0.3 in
09:17 8.6 °F 8.0 °F 1020.5 in West 8.0 mph 29.0 mph 96 % 0.3 in
09:22 8.7 °F 8.1 °F 1020.5 in WSW 9.7 mph 29.0 mph 96 % 0.3 in
09:27 8.7 °F 8.1 °F 1020.5 in West 9.7 mph 30.6 mph 96 % 0.3 in
09:32 8.7 °F 8.1 °F 1020.5 in SW 12.9 mph 30.6 mph 96 % 0.3 in
09:37 8.8 °F 8.2 °F 1020.5 in West 12.9 mph 27.4 mph 96 % 0.3 in
09:42 8.8 °F 8.2 °F 1020.5 in SW 16.1 mph 27.4 mph 96 % 0.3 in
09:47 8.8 °F 8.2 °F 1020.2 in SW 14.5 mph 27.4 mph 96 % 0.5 in
09:57 8.9 °F 8.3 °F 1020.5 in WSW 4.8 mph 22.5 mph 96 % 0.5 in
10:02 9.0 °F 8.4 °F 1020.2 in WSW 9.7 mph 27.4 mph 96 % 0.5 in
10:12 9.1 °F 8.5 °F 1020.2 in West 19.3 mph 32.2 mph 96 % 0.5 in
10:17 9.1 °F 8.5 °F 1019.9 in West 16.1 mph 32.2 mph 96 % 0.5 in
10:27 9.2 °F 8.6 °F 1020.2 in WSW 8.0 mph 25.7 mph 96 % 1.0 in
10:32 9.2 °F 8.6 °F 1019.9 in SW 11.3 mph 25.7 mph 96 % 1.0 in
10:42 9.3 °F 8.7 °F 1019.9 in SW 9.7 mph 25.7 mph 96 % 0.8 in
10:47 9.3 °F 8.7 °F 1019.9 in SW 20.9 mph 27.4 mph 96 % 0.8 in
10:52 9.3 °F 8.7 °F 1019.9 in West 20.9 mph 27.4 mph 96 % 0.8 in
10:57 9.4 °F 8.8 °F 1019.9 in SW 17.7 mph 27.4 mph 96 % 0.8 in
11:02 9.4 °F 8.8 °F 1019.5 in WSW 12.9 mph 24.1 mph 96 % 0.5 in
11:12 9.6 °F 9.0 °F 1019.5 in SW 14.5 mph 35.4 mph 96 % 0.8 in
11:17 9.6 °F 9.0 °F 1019.5 in SSW 14.5 mph 35.4 mph 96 % 0.8 in
11:27 9.7 °F 9.1 °F 1019.5 in West 17.7 mph 25.7 mph 96 % 0.5 in
11:32 9.8 °F 9.2 °F 1019.5 in WSW 11.3 mph 25.7 mph 96 % 0.5 in
11:42 9.8 °F 9.2 °F 1019.2 in SW 12.9 mph 30.6 mph 96 % 0.5 in
11:47 9.9 °F 9.3 °F 1019.2 in West 12.9 mph 30.6 mph 96 % 0.5 in
11:52 9.9 °F 9.3 °F 1018.8 in WSW 11.3 mph 25.7 mph 96 % 0.3 in
11:57 10.0 °F 9.4 °F 1018.8 in WSW 11.3 mph 29.0 mph 96 % 0.3 in
12:02 10.1 °F 9.5 °F 1018.5 in WSW 17.7 mph 29.0 mph 96 % 0.3 in
12:12 10.2 °F 9.6 °F 1018.5 in SW 9.7 mph 33.8 mph 96 % 0.3 in
12:22 10.3 °F 9.7 °F 1018.5 in WSW 11.3 mph 33.8 mph 96 % 0.3 in
12:32 10.4 °F 9.8 °F 1018.2 in West 17.7 mph 30.6 mph 96 % 0.3 in
12:42 10.5 °F 9.9 °F 1017.8 in SW 9.7 mph 30.6 mph 96 % 0.5 in
12:47 10.5 °F 9.9 °F 1017.8 in West 11.3 mph 30.6 mph 96 % 0.5 in
12:52 10.6 °F 10.0 °F 1017.8 in West 16.1 mph 30.6 mph 96 % 0.5 in
13:02 10.6 °F 9.8 °F 1017.8 in SW 27.4 mph 29.0 mph 95 % 0.5 in
13:12 10.8 °F 10.0 °F 1017.8 in West 19.3 mph 32.2 mph 95 % 0.5 in
13:17 10.8 °F 10.0 °F 1017.8 in West 16.1 mph 32.2 mph 95 % 0.8 in
13:22 10.8 °F 10.0 °F 1017.5 in SW 11.3 mph 32.2 mph 95 % 1.0 in
13:27 10.9 °F 10.1 °F 1017.5 in West 14.5 mph 29.0 mph 95 % 1.0 in
13:32 10.9 °F 10.1 °F 1017.5 in WSW 16.1 mph 29.0 mph 95 % 1.3 in
13:37 10.9 °F 10.1 °F 1017.5 in WSW 9.7 mph 29.0 mph 95 % 1.5 in
13:42 10.9 °F 10.1 °F 1017.5 in SW 12.9 mph 29.0 mph 95 % 1.3 in
13:47 11.0 °F 10.2 °F 1017.2 in West 8.0 mph 27.4 mph 95 % 1.5 in
13:57 11.1 °F 10.3 °F 1017.2 in West 8.0 mph 33.8 mph 95 % 1.5 in
14:02 11.1 °F 10.3 °F 1016.8 in SW 14.5 mph 33.8 mph 95 % 1.3 in
14:07 11.1 °F 10.3 °F 1016.8 in WSW 27.4 mph 32.2 mph 95 % 1.5 in
14:12 11.1 °F 10.3 °F 1016.8 in West 22.5 mph 29.0 mph 95 % 1.5 in
14:17 11.1 °F 10.3 °F 1016.8 in WSW 16.1 mph 29.0 mph 95 % 1.3 in
14:22 11.1 °F 10.3 °F 1016.5 in West 12.9 mph 29.0 mph 95 % 1.3 in
14:27 11.1 °F 10.3 °F 1016.5 in WSW 16.1 mph 27.4 mph 95 % 1.3 in
14:32 11.1 °F 10.3 °F 1016.5 in WSW 9.7 mph 27.4 mph 95 % 1.3 in
14:37 11.1 °F 10.3 °F 1016.5 in WSW 20.9 mph 27.4 mph 95 % 1.3 in
14:42 11.1 °F 10.3 °F 1016.5 in WSW 6.4 mph 27.4 mph 95 % 1.3 in
14:47 11.1 °F 10.3 °F 1016.1 in WSW 16.1 mph 27.4 mph 95 % 1.5 in
14:52 11.1 °F 10.3 °F 1016.1 in WSW 19.3 mph 27.4 mph 95 % 1.5 in
14:57 11.2 °F 10.4 °F 1016.1 in SW 14.5 mph 27.4 mph 95 % 1.5 in
15:02 11.2 °F 10.4 °F 1016.1 in WSW 11.3 mph 27.4 mph 95 % 1.5 in
15:12 11.2 °F 10.4 °F 1016.1 in WSW 12.9 mph 27.4 mph 95 % 1.5 in
15:17 11.2 °F 10.4 °F 1016.1 in West 9.7 mph 24.1 mph 95 % 1.5 in
15:22 11.2 °F 10.4 °F 1016.1 in West 16.1 mph 24.1 mph 95 % 1.5 in
15:27 11.3 °F 10.5 °F 1016.1 in West 16.1 mph 25.7 mph 95 % 1.5 in
15:32 11.3 °F 10.5 °F 1016.1 in WSW 11.3 mph 25.7 mph 95 % 1.5 in
15:37 11.3 °F 10.5 °F 1016.1 in West 9.7 mph 25.7 mph 95 % 1.3 in
15:42 11.3 °F 10.5 °F 1016.1 in West 12.9 mph 25.7 mph 95 % 1.3 in
15:47 11.3 °F 10.5 °F 1016.1 in West 17.7 mph 25.7 mph 95 % 1.0 in
15:52 11.3 °F 10.5 °F 1015.8 in West 14.5 mph 24.1 mph 95 % 1.0 in
15:57 11.4 °F 10.6 °F 1015.8 in WSW 16.1 mph 27.4 mph 95 % 1.0 in
16:02 11.4 °F 10.6 °F 1015.8 in West 11.3 mph 27.4 mph 95 % 0.8 in
16:07 11.4 °F 10.6 °F 1015.8 in West 14.5 mph 27.4 mph 95 % 0.8 in
16:12 11.4 °F 10.8 °F 1015.8 in SW 12.9 mph 25.7 mph 96 % 0.8 in
16:17 11.4 °F 10.8 °F 1015.8 in WSW 12.9 mph 25.7 mph 96 % 1.0 in
16:22 11.4 °F 10.8 °F 1015.8 in West 17.7 mph 25.7 mph 96 % 0.8 in
16:27 11.4 °F 10.8 °F 1015.5 in WSW 17.7 mph 27.4 mph 96 % 0.8 in
16:37 11.5 °F 10.9 °F 1015.5 in West 14.5 mph 27.4 mph 96 % 0.8 in
16:42 11.5 °F 10.9 °F 1015.5 in WSW 19.3 mph 29.0 mph 96 % 0.8 in
16:47 11.5 °F 10.9 °F 1015.5 in WNW 19.3 mph 29.0 mph 96 % 0.5 in
16:52 11.6 °F 11.0 °F 1015.5 in West 16.1 mph 25.7 mph 96 % 0.5 in
16:57 11.6 °F 11.0 °F 1015.5 in SW 8.0 mph 29.0 mph 96 % 0.5 in
17:02 11.6 °F 11.0 °F 1015.5 in West 12.9 mph 29.0 mph 96 % 0.5 in
17:07 11.6 °F 11.0 °F 1015.5 in SW 9.7 mph 29.0 mph 96 % 0.5 in
17:12 11.6 °F 11.0 °F 1015.5 in West 6.4 mph 25.7 mph 96 % 0.5 in
17:17 11.6 °F 11.0 °F 1015.5 in WSW 8.0 mph 27.4 mph 96 % 0.3 in
17:22 11.6 °F 11.0 °F 1015.5 in West 17.7 mph 27.4 mph 96 % 0.5 in
17:27 11.6 °F 11.0 °F 1015.5 in West 11.3 mph 24.1 mph 96 % 0.5 in
17:32 11.6 °F 11.0 °F 1015.5 in West 11.3 mph 24.1 mph 96 % 0.5 in
17:37 11.6 °F 11.0 °F 1015.5 in WSW 16.1 mph 22.5 mph 96 % 0.3 in
17:47 11.6 °F 11.0 °F 1015.5 in West 9.7 mph 25.7 mph 96 % 0.3 in
17:52 11.7 °F 11.1 °F 1015.5 in West 11.3 mph 25.7 mph 96 % 0.3 in
17:57 11.7 °F 11.1 °F 1015.5 in West 6.4 mph 25.7 mph 96 % 0.3 in
18:02 11.7 °F 11.1 °F 1015.5 in WSW 11.3 mph 24.1 mph 96 % 0.5 in
18:07 11.7 °F 11.1 °F 1015.5 in West 12.9 mph 22.5 mph 96 % 0.5 in
18:12 11.7 °F 11.1 °F 1015.5 in WSW 8.0 mph 22.5 mph 96 % 0.5 in
18:17 11.8 °F 11.2 °F 1015.5 in West 12.9 mph 20.9 mph 96 % 0.3 in
18:22 11.8 °F 11.2 °F 1015.5 in West 17.7 mph 20.9 mph 96 % 0.3 in
18:32 11.8 °F 11.2 °F 1015.5 in West 11.3 mph 20.9 mph 96 % 0.3 in
18:42 11.9 °F 11.3 °F 1015.5 in WSW 8.0 mph 19.3 mph 96 % 0.3 in
18:47 11.8 °F 11.2 °F 1015.5 in WNW 14.5 mph 19.3 mph 96 % 0.3 in
18:52 11.9 °F 11.3 °F 1015.5 in West 11.3 mph 19.3 mph 96 % 0.3 in
18:57 11.9 °F 11.3 °F 1015.5 in West 11.3 mph 29.0 mph 96 % 0.0 in
19:02 11.9 °F 11.3 °F 1015.5 in WSW 6.4 mph 29.0 mph 96 % 0.0 in
19:07 11.9 °F 11.3 °F 1015.5 in West 8.0 mph 29.0 mph 96 % 0.0 in
19:12 11.9 °F 11.3 °F 1015.5 in West 11.3 mph 25.7 mph 96 % 0.3 in
19:17 11.9 °F 11.3 °F 1015.5 in West 14.5 mph 25.7 mph 96 % 0.3 in
19:27 12.0 °F 11.4 °F 1015.5 in West 11.3 mph 25.7 mph 96 % 0.3 in
19:32 12.0 °F 11.4 °F 1015.5 in West 12.9 mph 25.7 mph 96 % 0.3 in
19:37 12.1 °F 11.5 °F 1015.8 in WNW 14.5 mph 25.7 mph 96 % 0.3 in
19:42 12.1 °F 11.5 °F 1015.8 in WNW 9.7 mph 25.7 mph 96 % 0.3 in
19:47 12.1 °F 11.5 °F 1015.8 in West 14.5 mph 25.7 mph 96 % 0.3 in
19:52 12.1 °F 11.5 °F 1015.8 in WSW 16.1 mph 24.1 mph 96 % 0.3 in
19:57 12.1 °F 11.5 °F 1015.8 in West 8.0 mph 20.9 mph 96 % 0.3 in
20:02 12.1 °F 11.5 °F 1015.8 in SW 12.9 mph 24.1 mph 96 % 0.3 in
20:07 12.1 °F 11.5 °F 1015.8 in West 14.5 mph 24.1 mph 96 % 0.0 in
20:12 12.1 °F 11.5 °F 1015.8 in West 9.7 mph 24.1 mph 96 % 0.0 in
20:17 12.1 °F 11.5 °F 1015.8 in West 4.8 mph 22.5 mph 96 % 0.0 in
20:22 12.1 °F 11.5 °F 1015.8 in WSW 20.9 mph 22.5 mph 96 % 0.0 in
20:27 12.1 °F 11.5 °F 1015.8 in West 8.0 mph 25.7 mph 96 % 0.0 in
20:32 12.1 °F 11.5 °F 1015.8 in WSW 14.5 mph 25.7 mph 96 % 0.0 in
20:37 12.1 °F 11.5 °F 1015.8 in SW 14.5 mph 25.7 mph 96 % 0.0 in
20:42 12.1 °F 11.5 °F 1015.8 in WSW 19.3 mph 20.9 mph 96 % 0.0 in
20:52 12.1 °F 11.5 °F 1015.8 in West 11.3 mph 25.7 mph 96 % 0.0 in
20:57 12.1 °F 11.5 °F 1015.8 in WSW 12.9 mph 25.7 mph 96 % 0.0 in
21:02 12.1 °F 11.5 °F 1015.8 in WNW 14.5 mph 22.5 mph 96 % 0.0 in
21:07 12.1 °F 11.5 °F 1016.1 in West 9.7 mph 22.5 mph 96 % 0.0 in
21:12 12.1 °F 11.5 °F 1016.1 in WSW 9.7 mph 22.5 mph 96 % 0.0 in
21:17 12.1 °F 11.5 °F 1015.8 in WSW 8.0 mph 29.0 mph 96 % 0.0 in
21:22 12.1 °F 11.5 °F 1015.8 in WNW 4.8 mph 29.0 mph 96 % 0.0 in
21:27 12.1 °F 11.5 °F 1016.1 in West 11.3 mph 19.3 mph 96 % 0.0 in
21:32 12.1 °F 11.5 °F 1015.8 in West 9.7 mph 20.9 mph 96 % 0.0 in
21:37 12.1 °F 11.5 °F 1015.8 in WSW 12.9 mph 20.9 mph 96 % 0.0 in
21:42 12.1 °F 11.5 °F 1015.8 in WNW 12.9 mph 25.7 mph 96 % 0.0 in
21:47 12.1 °F 11.5 °F 1015.8 in West 11.3 mph 25.7 mph 96 % 0.0 in
21:57 12.1 °F 11.5 °F 1015.8 in WNW 12.9 mph 24.1 mph 96 % 0.0 in
22:02 12.1 °F 11.5 °F 1015.8 in WNW 9.7 mph 24.1 mph 96 % 0.0 in
22:07 12.1 °F 11.5 °F 1015.8 in WNW 6.4 mph 24.1 mph 96 % 0.0 in
22:12 12.1 °F 11.3 °F 1015.8 in West 22.5 mph 24.1 mph 95 % 0.0 in
22:17 12.1 °F 11.3 °F 1016.1 in WNW 12.9 mph 29.0 mph 95 % 0.0 in
22:22 12.1 °F 11.3 °F 1015.8 in West 14.5 mph 29.0 mph 95 % 0.0 in
22:27 12.1 °F 11.3 °F 1016.1 in West 17.7 mph 29.0 mph 95 % 0.0 in
22:32 12.1 °F 11.3 °F 1016.1 in WNW 16.1 mph 24.1 mph 95 % 0.0 in
22:37 12.1 °F 11.3 °F 1016.1 in WSW 20.9 mph 24.1 mph 95 % 0.0 in
22:42 12.1 °F 11.3 °F 1016.1 in West 19.3 mph 24.1 mph 95 % 0.0 in
22:47 12.1 °F 11.3 °F 1015.8 in West 9.7 mph 24.1 mph 95 % 0.0 in
22:52 12.2 °F 11.3 °F 1015.8 in West 20.9 mph 25.7 mph 94 % 0.0 in
22:57 12.3 °F 11.2 °F 1015.8 in WNW 12.9 mph 27.4 mph 93 % 0.0 in
23:02 12.3 °F 11.2 °F 1015.8 in West 19.3 mph 27.4 mph 93 % 0.0 in
23:07 12.3 °F 11.2 °F 1015.8 in WNW 12.9 mph 25.7 mph 93 % 0.0 in
23:12 12.3 °F 11.2 °F 1016.1 in West 12.9 mph 24.1 mph 93 % 0.0 in
23:17 12.3 °F 11.2 °F 1015.8 in WNW 9.7 mph 25.7 mph 93 % 0.3 in
23:22 12.3 °F 11.2 °F 1015.8 in West 9.7 mph 25.7 mph 93 % 0.3 in
23:27 12.2 °F 11.3 °F 1015.8 in WNW 16.1 mph 25.7 mph 94 % 0.3 in
23:32 12.1 °F 11.2 °F 1015.8 in WSW 14.5 mph 24.1 mph 94 % 0.3 in
23:37 12.1 °F 11.2 °F 1015.8 in West 9.7 mph 24.1 mph 94 % 0.3 in
23:47 12.0 °F 11.2 °F 1015.8 in West 11.3 mph 24.1 mph 95 % 0.3 in
23:52 12.0 °F 11.2 °F 1015.8 in West 11.3 mph 20.9 mph 95 % 0.3 in
23:57 12.1 °F 11.2 °F 1015.8 in West 9.7 mph 24.1 mph 94 % 0.3 in
Meteo18
Compliments of Weather Underground - 4 mb

Script developed by  Jim McMurry - jmcmurry@mwt.net Adapted for the template by  Wim van der Kuil - Leuven-Template.eu

You find our weather info also at:

European Weather Network

Weather Underground

Equipment we use:

Weather-station
Davis Vue

Weather-program
Meteobridge

Weather-server
Raspberry PI 2 B+

Provider
1 and 1

Davis Vue

Meteobridge

Raspberry PI 2 B+

1 and 1